Time;durP1;ratioP1;P1;durP2;ratioP2;P2;SDS_P1;SDS_P2;PMS_P1;PMS_P2;Temp;Humidity;BMP_temperature;BMP_pressure;BME280_temperature;BME280_humidity;BME280_pressure;Samples;Min_cycle;Max_cycle;Signal;HPM_P1;HPM_P2
2022/07/20 00:00:55;;;;;;;;;;;;;;;;;;4973516;28;19996;-89
2022/07/20 00:03:20;;;;;;;;;;;;;;;;;;4973371;28;19918;-89
2022/07/20 00:05:46;;;;;;;;;;;;;;;;;;4974082;28;20381;-87
2022/07/20 00:08:11;;;;;;;;;;;;;;;;;;4973799;28;19952;-86
2022/07/20 00:13:21;;;;;;;;;;;;;;;;;;4973022;28;20317;-91
2022/07/20 00:15:46;;;;;;;;;;;;;;;;;;4973267;28;19914;-87
2022/07/20 00:18:12;;;;;;;;;;;;;;;;;;4973375;28;19914;-87
2022/07/20 00:20:37;;;;;;;;;;;;;;;;;;4974000;28;19915;-87
2022/07/20 00:23:02;;;;;;;;;;;;;;;;;;4973870;28;19914;-87
2022/07/20 00:25:28;;;;;;;;;;;;;;;;;;4973221;28;19915;-86
2022/07/20 00:27:53;;;;;;;;;;;;;;;;;;4974170;28;20016;-86
2022/07/20 00:30:19;;;;;;;;;;;;;;;;;;4973019;28;19949;-87
2022/07/20 00:32:44;;;;;;;;;;;;;;;;;;4973858;28;19919;-88
2022/07/20 00:35:09;;;;;;;;;;;;;;;;;;4973148;28;20388;-87
2022/07/20 00:37:35;;;;;;;;;;;;;;;;;;4974800;28;20385;-87
2022/07/20 00:40:00;;;;;;;;;;;;;;;;;;4975071;28;20333;-86
2022/07/20 00:42:25;;;;;;;;;;;;;;;;;;4974451;28;19924;-85
2022/07/20 00:44:51;;;;;;;;;;;;;;;;;;4941334;28;19914;-87
2022/07/20 00:47:16;;;;;;;;;;;;;;;;;;4972984;28;19941;-87
2022/07/20 00:49:41;;;;;;;;;;;;;;;;;;4974855;28;20278;-87
2022/07/20 00:52:07;;;;;;;;;;;;;;;;;;4978648;28;19924;-88
2022/07/20 00:54:35;;;;;;;;;;;;;;;;;;4989390;28;19898;-89
2022/07/20 00:57:01;;;;;;;;;;;;;;;;;;4996987;28;19906;-90
2022/07/20 00:59:27;;;;;;;;;;;;;;;;;;4996020;28;19982;-87
2022/07/20 01:01:52;;;;;;;;;;;;;;;;;;4972784;28;19918;-87
2022/07/20 01:04:17;;;;;;;;;;;;;;;;;;4997251;28;19902;-88
2022/07/20 01:06:43;;;;;;;;;;;;;;;;;;4993448;28;20005;-88
2022/07/20 01:09:08;;;;;;;;;;;;;;;;;;5009615;28;19926;-89
2022/07/20 01:11:34;;;;;;;;;;;;;;;;;;4997136;28;19933;-91
2022/07/20 01:13:59;;;;;;;;;;;;;;;;;;4980044;28;19929;-83
2022/07/20 01:16:24;;;;;;;;;;;;;;;;;;4972690;28;20369;-85
2022/07/20 01:18:49;;;;;;;;;;;;;;;;;;4976979;28;19921;-88
2022/07/20 01:21:15;;;;;;;;;;;;;;;;;;4977039;28;19917;-87
2022/07/20 01:23:40;;;;;;;;;;;;;;;;;;4976232;28;19914;-86
2022/07/20 01:26:06;;;;;;;;;;;;;;;;;;4960007;28;19921;-84
2022/07/20 01:28:31;;;;;;;;;;;;;;;;;;4960052;28;20389;-87
2022/07/20 01:30:56;;;;;;;;;;;;;;;;;;4953596;28;20013;-89
2022/07/20 01:33:22;;;;;;;;;;;;;;;;;;4944631;28;19914;-90
2022/07/20 01:35:47;;;;;;;;;;;;;;;;;;4943913;28;20374;-84
2022/07/20 01:38:12;;;;;;;;;;;;;;;;;;4975718;28;20053;-85
2022/07/20 01:40:38;;;;;;;;;;;;;;;;;;4975824;28;20329;-84
2022/07/20 01:43:03;;;;;;;;;;;;;;;;;;4991606;28;19924;-86
2022/07/20 01:45:29;;;;;;;;;;;;;;;;;;4976773;28;19914;-85
2022/07/20 01:47:54;;;;;;;;;;;;;;;;;;4975995;28;19918;-85
2022/07/20 01:50:19;;;;;;;;;;;;;;;;;;4976706;28;20401;-84
2022/07/20 01:52:45;;;;;;;;;;;;;;;;;;4975627;28;19914;-84
2022/07/20 01:55:10;;;;;;;;;;;;;;;;;;4975340;28;20420;-84
2022/07/20 01:57:36;;;;;;;;;;;;;;;;;;4976854;28;19921;-84
2022/07/20 02:00:01;;;;;;;;;;;;;;;;;;4975759;28;20374;-85
2022/07/20 02:02:37;;;;;;;;;;;;;;;;;;4971687;28;19950;-84
2022/07/20 02:05:02;;;;;;;;;;;;;;;;;;4963061;28;19929;-84
2022/07/20 02:07:27;;;;;;;;;;;;;;;;;;4977366;28;19968;-85
2022/07/20 02:09:56;;;;;;;;;;;;;;;;;;4996902;28;19925;-85
2022/07/20 02:12:21;;;;;;;;;;;;;;;;;;4990557;28;19942;-83
2022/07/20 02:14:47;;;;;;;;;;;;;;;;;;4983573;28;19914;-84
2022/07/20 02:17:12;;;;;;;;;;;;;;;;;;4996734;28;19910;-82
2022/07/20 02:19:37;;;;;;;;;;;;;;;;;;4978064;28;19914;-83
2022/07/20 02:22:03;;;;;;;;;;;;;;;;;;5004170;28;20016;-87
2022/07/20 02:24:28;;;;;;;;;;;;;;;;;;4993127;28;19921;-88
2022/07/20 02:26:54;;;;;;;;;;;;;;;;;;4995775;28;19981;-89
2022/07/20 02:29:19;;;;;;;;;;;;;;;;;;4977150;28;19946;-88
2022/07/20 02:31:44;;;;;;;;;;;;;;;;;;4973844;28;20337;-87
2022/07/20 02:34:10;;;;;;;;;;;;;;;;;;4970047;28;19918;-87
2022/07/20 02:36:35;;;;;;;;;;;;;;;;;;4977769;23;19926;-82
2022/07/20 02:39:00;;;;;;;;;;;;;;;;;;4974897;28;19914;-81
2022/07/20 02:41:26;;;;;;;;;;;;;;;;;;4975727;28;20389;-80
2022/07/20 02:43:52;;;;;;;;;;;;;;;;;;4958476;28;19921;-81
2022/07/20 02:46:17;;;;;;;;;;;;;;;;;;4975395;28;19949;-81
2022/07/20 02:48:42;;;;;;;;;;;;;;;;;;4990466;28;19918;-82
2022/07/20 02:51:08;;;;;;;;;;;;;;;;;;4972674;28;20372;-82
2022/07/20 02:53:33;;;;;;;;;;;;;;;;;;4956255;28;19925;-84
2022/07/20 02:55:58;;;;;;;;;;;;;;;;;;4956217;28;19961;-83
2022/07/20 02:58:24;;;;;;;;;;;;;;;;;;4971692;28;19918;-81
2022/07/20 03:00:49;;;;;;;;;;;;;;;;;;4955523;28;19958;-82
2022/07/20 03:03:14;;;;;;;;;;;;;;;;;;4971104;28;20409;-81
2022/07/20 03:05:40;;;;;;;;;;;;;;;;;;4955268;28;19922;-81
2022/07/20 03:08:06;;;;;;;;;;;;;;;;;;4971228;28;19925;-81
2022/07/20 03:10:31;;;;;;;;;;;;;;;;;;4971690;28;19918;-81
2022/07/20 03:12:56;;;;;;;;;;;;;;;;;;4990363;28;20016;-83
2022/07/20 03:15:22;;;;;;;;;;;;;;;;;;4976176;28;19918;-84
2022/07/20 03:17:47;;;;;;;;;;;;;;;;;;4990462;28;19953;-82
2022/07/20 03:20:12;;;;;;;;;;;;;;;;;;4990628;28;19918;-81
2022/07/20 03:22:38;;;;;;;;;;;;;;;;;;4975521;28;19917;-80
2022/07/20 03:25:03;;;;;;;;;;;;;;;;;;4987162;28;19918;-81
2022/07/20 03:27:29;;;;;;;;;;;;;;;;;;4955970;28;19918;-81
2022/07/20 03:29:54;;;;;;;;;;;;;;;;;;4971289;28;19993;-81
2022/07/20 03:32:19;;;;;;;;;;;;;;;;;;4955893;28;20395;-82
2022/07/20 03:34:45;;;;;;;;;;;;;;;;;;4956061;28;19914;-81
2022/07/20 03:37:10;;;;;;;;;;;;;;;;;;4956156;28;19919;-81
2022/07/20 03:39:35;;;;;;;;;;;;;;;;;;4955480;28;20345;-82
2022/07/20 03:42:01;;;;;;;;;;;;;;;;;;4971831;28;19930;-82
2022/07/20 03:44:26;;;;;;;;;;;;;;;;;;4978590;28;20004;-81
2022/07/20 03:46:51;;;;;;;;;;;;;;;;;;4974797;28;19924;-81
2022/07/20 03:49:17;;;;;;;;;;;;;;;;;;4990160;28;19945;-82
2022/07/20 03:51:42;;;;;;;;;;;;;;;;;;4976627;28;20274;-81
2022/07/20 03:54:08;;;;;;;;;;;;;;;;;;4975371;28;19972;-80
2022/07/20 03:56:39;;;;;;;;;;;;;;;;;;4976572;28;19919;-81
2022/07/20 03:59:05;;;;;;;;;;;;;;;;;;4976380;28;19921;-81
2022/07/20 04:01:30;;;;;;;;;;;;;;;;;;4990630;28;19910;-81
2022/07/20 04:03:55;;;;;;;;;;;;;;;;;;4965291;28;19941;-82
2022/07/20 04:06:21;;;;;;;;;;;;;;;;;;4970421;28;19914;-81
2022/07/20 04:08:48;;;;;;;;;;;;;;;;;;4954757;28;19918;-82
2022/07/20 04:11:13;;;;;;;;;;;;;;;;;;4954766;28;19914;-81
2022/07/20 04:13:38;;;;;;;;;;;;;;;;;;4954513;28;19918;-81
2022/07/20 04:16:04;;;;;;;;;;;;;;;;;;4969312;28;19915;-81
2022/07/20 04:18:29;;;;;;;;;;;;;;;;;;4954447;28;20025;-82
2022/07/20 04:20:55;;;;;;;;;;;;;;;;;;4974006;28;19973;-82
2022/07/20 04:23:20;;;;;;;;;;;;;;;;;;4975609;28;19914;-82
2022/07/20 04:25:46;;;;;;;;;;;;;;;;;;4972711;28;20288;-82
2022/07/20 04:28:11;;;;;;;;;;;;;;;;;;4972371;28;19945;-81
2022/07/20 04:30:38;;;;;;;;;;;;;;;;;;4972606;28;19965;-81
2022/07/20 04:33:03;;;;;;;;;;;;;;;;;;4972449;28;19921;-80
2022/07/20 04:35:29;;;;;;;;;;;;;;;;;;4973930;28;19914;-81
2022/07/20 04:37:54;;;;;;;;;;;;;;;;;;4968772;28;19957;-80
2022/07/20 04:40:20;;;;;;;;;;;;;;;;;;4973403;28;19914;-79
2022/07/20 04:42:45;;;;;;;;;;;;;;;;;;4989919;28;20337;-81
2022/07/20 04:45:10;;;;;;;;;;;;;;;;;;4988804;28;19914;-80
2022/07/20 04:47:36;;;;;;;;;;;;;;;;;;4973942;28;19918;-83
2022/07/20 04:50:01;;;;;;;;;;;;;;;;;;4988891;28;19921;-82
2022/07/20 04:52:26;;;;;;;;;;;;;;;;;;4974742;28;19914;-81
2022/07/20 04:54:52;;;;;;;;;;;;;;;;;;4976227;28;19911;-81
2022/07/20 04:57:17;;;;;;;;;;;;;;;;;;4974768;28;19921;-82
2022/07/20 04:59:43;;;;;;;;;;;;;;;;;;4977718;28;19921;-82
2022/07/20 05:02:08;;;;;;;;;;;;;;;;;;4992861;28;19913;-81
2022/07/20 05:04:33;;;;;;;;;;;;;;;;;;4977924;28;19920;-82
2022/07/20 05:06:59;;;;;;;;;;;;;;;;;;4992930;28;19914;-81
2022/07/20 05:09:25;;;;;;;;;;;;;;;;;;4992939;28;20173;-82
2022/07/20 05:11:50;;;;;;;;;;;;;;;;;;4990853;28;19929;-82
2022/07/20 05:14:16;;;;;;;;;;;;;;;;;;4960367;28;20437;-82
2022/07/20 05:16:45;;;;;;;;;;;;;;;;;;4958091;28;19922;-83
2022/07/20 05:19:11;;;;;;;;;;;;;;;;;;4973507;28;19914;-80
2022/07/20 05:21:36;;;;;;;;;;;;;;;;;;4978668;28;19914;-81
2022/07/20 05:24:02;;;;;;;;;;;;;;;;;;4991797;28;19914;-81
2022/07/20 05:26:27;;;;;;;;;;;;;;;;;;4977192;28;19914;-80
2022/07/20 05:28:52;;;;;;;;;;;;;;;;;;4991744;28;19997;-81
2022/07/20 05:31:18;;;;;;;;;;;;;;;;;;4992068;28;19921;-80
2022/07/20 05:33:43;;;;;;;;;;;;;;;;;;4992466;28;19918;-82
2022/07/20 05:36:09;;;;;;;;;;;;;;;;;;4991904;28;20254;-80
2022/07/20 05:38:34;;;;;;;;;;;;;;;;;;4970901;28;20275;-82
2022/07/20 05:41:00;;;;;;;;;;;;;;;;;;4972528;28;19915;-82
2022/07/20 05:43:25;;;;;;;;;;;;;;;;;;4957134;28;19914;-84
2022/07/20 05:45:50;;;;;;;;;;;;;;;;;;4972013;28;20453;-81
2022/07/20 05:48:16;;;;;;;;;;;;;;;;;;4957200;28;19919;-82
2022/07/20 05:50:41;;;;;;;;;;;;;;;;;;4958027;28;19930;-82
2022/07/20 05:53:06;;;;;;;;;;;;;;;;;;4956115;28;19950;-82
2022/07/20 05:55:32;;;;;;;;;;;;;;;;;;4965903;28;20373;-82
2022/07/20 05:57:57;;;;;;;;;;;;;;;;;;4990977;28;20017;-83
2022/07/20 06:00:23;;;;;;;;;;;;;;;;;;4991569;28;19914;-82
2022/07/20 06:02:48;;;;;;;;;;;;;;;;;;4975944;28;19921;-81
2022/07/20 06:05:13;;;;;;;;;;;;;;;;;;4991268;28;20393;-83
2022/07/20 06:07:39;;;;;;;;;;;;;;;;;;4975893;28;19926;-83
2022/07/20 06:10:04;;;;;;;;;;;;;;;;;;4976599;28;20381;-83
2022/07/20 06:12:30;;;;;;;;;;;;;;;;;;4968256;28;19915;-80
2022/07/20 06:14:55;;;;;;;;;;;;;;;;;;4971670;28;19949;-81
2022/07/20 06:17:20;;;;;;;;;;;;;;;;;;4956665;28;20327;-80
2022/07/20 06:19:46;;;;;;;;;;;;;;;;;;4956899;28;20361;-80
2022/07/20 06:22:11;;;;;;;;;;;;;;;;;;4972180;28;19966;-82
2022/07/20 06:24:36;;;;;;;;;;;;;;;;;;4956977;28;19915;-82
2022/07/20 06:27:02;;;;;;;;;;;;;;;;;;4972474;28;19952;-82
2022/07/20 06:29:27;;;;;;;;;;;;;;;;;;4979501;28;19918;-82
2022/07/20 06:31:53;;;;;;;;;;;;;;;;;;4971626;28;19915;-82
2022/07/20 06:34:18;;;;;;;;;;;;;;;;;;4955389;29;19922;-81
2022/07/20 06:36:46;;;;;;;;;;;;;;;;;;4956345;28;19948;-81
2022/07/20 06:39:11;;;;;;;;;;;;;;;;;;4971252;28;20009;-82
2022/07/20 06:41:36;;;;;;;;;;;;;;;;;;4971577;28;19964;-83
2022/07/20 06:44:08;;;;;;;;;;;;;;;;;;4987661;28;19914;-81
2022/07/20 06:46:34;;;;;;;;;;;;;;;;;;4960154;28;20302;-82
2022/07/20 06:48:59;;;;;;;;;;;;;;;;;;4971096;28;19989;-82
2022/07/20 06:51:25;;;;;;;;;;;;;;;;;;4956481;28;19918;-82
2022/07/20 06:53:50;;;;;;;;;;;;;;;;;;4971114;28;19914;-82
2022/07/20 06:56:15;;;;;;;;;;;;;;;;;;4954897;28;19920;-81
2022/07/20 06:58:41;;;;;;;;;;;;;;;;;;4970929;28;19918;-82
2022/07/20 07:01:06;;;;;;;;;;;;;;;;;;4971104;28;19917;-83
2022/07/20 07:03:32;;;;;;;;;;;;;;;;;;4988886;28;19914;-82
2022/07/20 07:05:57;;;;;;;;;;;;;;;;;;4975080;28;19921;-81
2022/07/20 07:08:22;;;;;;;;;;;;;;;;;;4973905;28;20285;-81
2022/07/20 07:10:48;;;;;;;;;;;;;;;;;;4958321;28;19914;-82
2022/07/20 07:13:13;;;;;;;;;;;;;;;;;;4978153;28;20341;-81
2022/07/20 07:15:38;;;;;;;;;;;;;;;;;;4973915;28;19914;-83
2022/07/20 07:18:04;;;;;;;;;;;;;;;;;;4988184;28;19924;-84
2022/07/20 07:20:29;;;;;;;;;;;;;;;;;;4976050;28;19921;-84
2022/07/20 07:22:55;;;;;;;;;;;;;;;;;;4973851;28;19929;-83
2022/07/20 07:25:20;;;;;;;;;;;;;;;;;;4990972;28;19914;-82
2022/07/20 07:27:46;;;;;;;;;;;;;;;;;;4990607;28;19918;-84
2022/07/20 07:30:11;;;;;;;;;;;;;;;;;;4975824;28;20001;-85
2022/07/20 07:32:36;;;;;;;;;;;;;;;;;;4990183;28;20317;-84
2022/07/20 07:35:02;;;;;;;;;;;;;;;;;;4975674;28;19914;-82
2022/07/20 07:37:28;;;;;;;;;;;;;;;;;;4991618;28;19925;-81
2022/07/20 07:39:53;;;;;;;;;;;;;;;;;;4960703;28;19915;-82
2022/07/20 07:42:20;;;;;;;;;;;;;;;;;;4970337;28;19918;-83
2022/07/20 07:44:45;;;;;;;;;;;;;;;;;;4970427;28;19961;-84
2022/07/20 07:47:11;;;;;;;;;;;;;;;;;;4957700;28;19974;-81
2022/07/20 07:49:36;;;;;;;;;;;;;;;;;;4972460;28;19923;-82
2022/07/20 07:52:01;;;;;;;;;;;;;;;;;;4975855;28;19921;-83
2022/07/20 07:54:27;;;;;;;;;;;;;;;;;;4971183;28;20325;-83
2022/07/20 07:56:52;;;;;;;;;;;;;;;;;;4975265;28;19914;-84
2022/07/20 07:59:17;;;;;;;;;;;;;;;;;;4958040;28;20277;-83
2022/07/20 08:01:43;;;;;;;;;;;;;;;;;;4974126;28;19914;-80
2022/07/20 08:04:08;;;;;;;;;;;;;;;;;;4972611;28;20449;-78
2022/07/20 08:06:34;;;;;;;;;;;;;;;;;;4973832;28;20334;-80
2022/07/20 08:08:59;;;;;;;;;;;;;;;;;;4972328;28;20400;-81
2022/07/20 08:11:24;;;;;;;;;;;;;;;;;;4973541;28;19938;-80
2022/07/20 08:13:50;;;;;;;;;;;;;;;;;;4968789;28;19910;-79
2022/07/20 08:16:15;;;;;;;;;;;;;;;;;;4973597;28;19988;-80
2022/07/20 08:18:41;;;;;;;;;;;;;;;;;;4973676;28;20353;-81
2022/07/20 08:21:06;;;;;;;;;;;;;;;;;;4988582;28;19910;-80
2022/07/20 08:23:31;;;;;;;;;;;;;;;;;;4988145;28;20005;-79
2022/07/20 08:25:57;;;;;;;;;;;;;;;;;;4988681;28;19914;-80
2022/07/20 08:28:22;;;;;;;;;;;;;;;;;;4988447;28;20358;-78
2022/07/20 08:30:48;;;;;;;;;;;;;;;;;;4973976;28;20281;-79
2022/07/20 08:33:13;;;;;;;;;;;;;;;;;;4980129;28;19918;-79
2022/07/20 08:35:39;;;;;;;;;;;;;;;;;;4973396;28;19918;-79
2022/07/20 08:38:04;;;;;;;;;;;;;;;;;;4999145;23;20305;-80
2022/07/20 08:40:30;;;;;;;;;;;;;;;;;;4975679;28;20332;-80
2022/07/20 08:42:55;;;;;;;;;;;;;;;;;;4994178;28;19916;-81
2022/07/20 08:45:21;;;;;;;;;;;;;;;;;;4993847;28;19956;-81
2022/07/20 08:47:46;;;;;;;;;;;;;;;;;;4992824;28;20009;-82
2022/07/20 08:50:11;;;;;;;;;;;;;;;;;;4992798;28;19921;-82
2022/07/20 08:52:37;;;;;;;;;;;;;;;;;;4992907;28;20107;-80
2022/07/20 08:55:02;;;;;;;;;;;;;;;;;;4976402;28;20001;-81
2022/07/20 08:57:28;;;;;;;;;;;;;;;;;;4993840;28;19924;-83
2022/07/20 08:59:53;;;;;;;;;;;;;;;;;;4993050;28;20346;-81
2022/07/20 09:02:20;;;;;;;;;;;;;;;;;;4993010;28;19910;-80
2022/07/20 09:04:45;;;;;;;;;;;;;;;;;;4993356;28;19913;-83
2022/07/20 09:07:10;;;;;;;;;;;;;;;;;;4975295;28;19921;-79
2022/07/20 09:09:36;;;;;;;;;;;;;;;;;;4975240;28;19956;-82
2022/07/20 09:12:01;;;;;;;;;;;;;;;;;;4991580;28;19913;-80
2022/07/20 09:14:27;;;;;;;;;;;;;;;;;;4992932;28;19914;-79
2022/07/20 09:16:52;;;;;;;;;;;;;;;;;;4994903;28;19940;-83
2022/07/20 09:19:17;;;;;;;;;;;;;;;;;;4977027;28;20412;-83
2022/07/20 09:21:43;;;;;;;;;;;;;;;;;;4977667;28;19943;-82
2022/07/20 09:24:08;;;;;;;;;;;;;;;;;;5000611;28;19957;-82
2022/07/20 09:26:33;;;;;;;;;;;;;;;;;;5003410;28;19914;-81
2022/07/20 09:28:59;;;;;;;;;;;;;;;;;;4985637;28;19917;-80
2022/07/20 09:31:29;;;;;;;;;;;;;;;;;;5009510;28;19909;-82
2022/07/20 09:33:54;;;;;;;;;;;;;;;;;;4988463;28;19914;-81
2022/07/20 09:36:20;;;;;;;;;;;;;;;;;;5008531;28;19921;-83
2022/07/20 09:38:45;;;;;;;;;;;;;;;;;;5010303;28;19925;-80
2022/07/20 09:41:11;;;;;;;;;;;;;;;;;;5012649;28;19910;-80
2022/07/20 09:43:36;;;;;;;;;;;;;;;;;;5012793;28;19987;-80
2022/07/20 09:46:01;;;;;;;;;;;;;;;;;;4996598;28;19914;-81
2022/07/20 09:48:27;;;;;;;;;;;;;;;;;;4988749;28;19925;-81
2022/07/20 09:50:52;;;;;;;;;;;;;;;;;;4989976;28;19914;-81
2022/07/20 09:53:18;;;;;;;;;;;;;;;;;;5005655;28;19921;-82
2022/07/20 09:55:43;;;;;;;;;;;;;;;;;;5001798;28;19914;-82
2022/07/20 09:58:09;;;;;;;;;;;;;;;;;;4978045;28;19921;-82
2022/07/20 10:00:34;;;;;;;;;;;;;;;;;;4994766;28;19920;-81
2022/07/20 10:02:59;;;;;;;;;;;;;;;;;;4995838;28;20365;-80
2022/07/20 10:05:25;;;;;;;;;;;;;;;;;;4995165;28;19920;-79
2022/07/20 10:07:50;;;;;;;;;;;;;;;;;;4995829;28;20016;-81
2022/07/20 10:10:15;;;;;;;;;;;;;;;;;;4996010;28;19918;-81
2022/07/20 10:12:41;;;;;;;;;;;;;;;;;;4978388;28;19921;-80
2022/07/20 10:15:06;;;;;;;;;;;;;;;;;;4978290;28;20403;-80
2022/07/20 10:17:33;;;;;;;;;;;;;;;;;;4994586;28;19964;-79
2022/07/20 10:19:58;;;;;;;;;;;;;;;;;;4995224;28;20378;-80
2022/07/20 10:22:24;;;;;;;;;;;;;;;;;;4995235;28;19914;-80
2022/07/20 10:24:49;;;;;;;;;;;;;;;;;;4994333;28;19922;-85
2022/07/20 10:27:15;;;;;;;;;;;;;;;;;;4944894;28;19920;-84
2022/07/20 10:29:41;;;;;;;;;;;;;;;;;;4974137;28;19924;-85
2022/07/20 10:32:06;;;;;;;;;;;;;;;;;;4955830;28;20301;-85
2022/07/20 10:34:32;;;;;;;;;;;;;;;;;;4995820;28;19914;-85
2022/07/20 10:36:58;;;;;;;;;;;;;;;;;;4951817;28;20014;-85
2022/07/20 10:39:23;;;;;;;;;;;;;;;;;;4958199;28;20008;-83
2022/07/20 10:41:48;;;;;;;;;;;;;;;;;;4942644;28;19921;-81
2022/07/20 10:44:14;;;;;;;;;;;;;;;;;;4970374;28;20348;-83
2022/07/20 10:46:39;;;;;;;;;;;;;;;;;;4957793;28;20336;-83
2022/07/20 10:49:04;;;;;;;;;;;;;;;;;;4994752;28;19965;-82
2022/07/20 10:51:30;;;;;;;;;;;;;;;;;;4963476;28;19922;-83
2022/07/20 10:53:55;;;;;;;;;;;;;;;;;;4974765;28;19964;-83
2022/07/20 10:56:21;;;;;;;;;;;;;;;;;;4994620;28;19937;-83
2022/07/20 10:58:46;;;;;;;;;;;;;;;;;;4990105;28;19913;-81
2022/07/20 11:01:12;;;;;;;;;;;;;;;;;;4995218;28;19917;-83
2022/07/20 11:03:37;;;;;;;;;;;;;;;;;;4949380;28;19914;-85
2022/07/20 11:06:02;;;;;;;;;;;;;;;;;;4962631;28;20441;-86
2022/07/20 11:08:28;;;;;;;;;;;;;;;;;;4956815;28;19969;-85
2022/07/20 11:10:55;;;;;;;;;;;;;;;;;;4968188;28;20000;-86
2022/07/20 11:13:21;;;;;;;;;;;;;;;;;;4974596;28;19922;-84
2022/07/20 11:15:46;;;;;;;;;;;;;;;;;;4975497;28;19910;-85
2022/07/20 11:18:11;;;;;;;;;;;;;;;;;;4964658;28;19913;-84
2022/07/20 11:20:37;;;;;;;;;;;;;;;;;;4992887;28;19914;-87
2022/07/20 11:23:02;;;;;;;;;;;;;;;;;;4979862;28;20329;-87
2022/07/20 11:25:28;;;;;;;;;;;;;;;;;;5000517;28;19911;-88
2022/07/20 11:27:53;;;;;;;;;;;;;;;;;;4945036;28;20439;-87
2022/07/20 11:30:19;;;;;;;;;;;;;;;;;;4989435;28;19969;-85
2022/07/20 11:32:44;;;;;;;;;;;;;;;;;;4974655;28;20445;-85
2022/07/20 11:35:09;;;;;;;;;;;;;;;;;;4968323;28;19917;-84
2022/07/20 11:37:35;;;;;;;;;;;;;;;;;;4980354;28;19926;-84
2022/07/20 11:40:01;;;;;;;;;;;;;;;;;;4963734;28;19914;-83
2022/07/20 11:42:26;;;;;;;;;;;;;;;;;;4976614;28;19914;-81
2022/07/20 11:44:51;;;;;;;;;;;;;;;;;;4996105;28;19914;-83
2022/07/20 11:47:17;;;;;;;;;;;;;;;;;;4973642;28;19914;-83
2022/07/20 11:49:42;;;;;;;;;;;;;;;;;;5000269;28;19964;-82
2022/07/20 11:52:08;;;;;;;;;;;;;;;;;;4978765;28;20350;-81
2022/07/20 11:54:35;;;;;;;;;;;;;;;;;;4973415;28;19921;-84
2022/07/20 11:57:00;;;;;;;;;;;;;;;;;;4971197;28;19918;-82
2022/07/20 11:59:26;;;;;;;;;;;;;;;;;;4981980;28;19969;-83
2022/07/20 12:01:51;;;;;;;;;;;;;;;;;;4974164;28;19910;-85
2022/07/20 12:04:20;;;;;;;;;;;;;;;;;;4946536;28;19964;-80
2022/07/20 12:06:45;;;;;;;;;;;;;;;;;;4978438;28;19949;-85
2022/07/20 12:09:10;;;;;;;;;;;;;;;;;;4966060;28;20294;-83
2022/07/20 12:11:36;;;;;;;;;;;;;;;;;;4976359;28;19961;-83
2022/07/20 12:14:04;;;;;;;;;;;;;;;;;;4955528;28;19922;-86
2022/07/20 12:16:29;;;;;;;;;;;;;;;;;;4981464;28;20015;-84
2022/07/20 12:18:55;;;;;;;;;;;;;;;;;;4996406;28;19932;-85
2022/07/20 12:21:21;;;;;;;;;;;;;;;;;;5001418;28;20303;-88
2022/07/20 12:23:46;;;;;;;;;;;;;;;;;;4985014;28;19958;-86
2022/07/20 12:26:11;;;;;;;;;;;;;;;;;;4977821;28;20413;-86
2022/07/20 12:28:37;;;;;;;;;;;;;;;;;;4989958;28;19913;-83
2022/07/20 12:31:02;;;;;;;;;;;;;;;;;;4987576;28;20296;-84
2022/07/20 12:33:28;;;;;;;;;;;;;;;;;;4966154;28;19914;-86
2022/07/20 12:35:53;;;;;;;;;;;;;;;;;;4977811;28;20002;-85
2022/07/20 12:38:18;;;;;;;;;;;;;;;;;;4972732;28;20009;-85
2022/07/20 12:40:44;;;;;;;;;;;;;;;;;;4948610;28;19913;-87
2022/07/20 12:43:09;;;;;;;;;;;;;;;;;;4991527;28;19986;-88
2022/07/20 12:45:35;;;;;;;;;;;;;;;;;;4976428;28;19940;-88
2022/07/20 12:48:00;;;;;;;;;;;;;;;;;;4963853;28;20397;-88
2022/07/20 12:50:25;;;;;;;;;;;;;;;;;;4973155;28;19915;-88
2022/07/20 12:52:51;;;;;;;;;;;;;;;;;;4965008;28;19957;-88
2022/07/20 12:55:16;;;;;;;;;;;;;;;;;;4963721;28;20301;-88
2022/07/20 12:57:42;;;;;;;;;;;;;;;;;;4971548;28;19918;-86
2022/07/20 13:00:08;;;;;;;;;;;;;;;;;;4991741;28;19969;-87
2022/07/20 13:02:33;;;;;;;;;;;;;;;;;;4989130;28;19921;-86
2022/07/20 13:04:58;;;;;;;;;;;;;;;;;;4992544;28;19924;-86
2022/07/20 13:07:24;;;;;;;;;;;;;;;;;;4962100;28;19976;-85
2022/07/20 13:09:49;;;;;;;;;;;;;;;;;;4973058;28;19918;-87
2022/07/20 13:12:15;;;;;;;;;;;;;;;;;;4956162;28;19914;-88
2022/07/20 13:14:40;;;;;;;;;;;;;;;;;;4951145;28;19921;-87
2022/07/20 13:17:06;;;;;;;;;;;;;;;;;;4997528;28;20372;-88
2022/07/20 13:19:32;;;;;;;;;;;;;;;;;;4984127;28;19914;-86
2022/07/20 13:21:57;;;;;;;;;;;;;;;;;;4978041;28;19972;-88
2022/07/20 13:24:22;;;;;;;;;;;;;;;;;;4977685;28;19953;-87
2022/07/20 13:26:48;;;;;;;;;;;;;;;;;;4978700;28;19925;-89
2022/07/20 13:29:14;;;;;;;;;;;;;;;;;;4957829;28;19918;-86
2022/07/20 13:31:39;;;;;;;;;;;;;;;;;;4997549;28;19921;-90
2022/07/20 13:34:07;;;;;;;;;;;;;;;;;;4995542;28;20395;-88
2022/07/20 13:36:33;;;;;;;;;;;;;;;;;;4982931;28;20012;-86
2022/07/20 13:38:58;;;;;;;;;;;;;;;;;;4988321;28;19995;-86
2022/07/20 13:41:24;;;;;;;;;;;;;;;;;;4996748;28;20013;-85
2022/07/20 13:43:49;;;;;;;;;;;;;;;;;;4962471;28;19914;-85
2022/07/20 13:46:14;;;;;;;;;;;;;;;;;;4994606;28;19914;-86
2022/07/20 13:48:40;;;;;;;;;;;;;;;;;;4979985;28;20358;-88
2022/07/20 13:51:05;;;;;;;;;;;;;;;;;;4969420;28;19922;-87
2022/07/20 13:53:31;;;;;;;;;;;;;;;;;;4973095;28;19914;-87
2022/07/20 13:55:56;;;;;;;;;;;;;;;;;;4975115;28;20293;-86
2022/07/20 13:58:22;;;;;;;;;;;;;;;;;;4977709;28;19921;-85
2022/07/20 14:00:47;;;;;;;;;;;;;;;;;;4981737;28;19956;-85
2022/07/20 14:03:12;;;;;;;;;;;;;;;;;;4964113;28;19925;-86
2022/07/20 14:05:38;;;;;;;;;;;;;;;;;;4958234;28;19941;-85
2022/07/20 14:08:03;;;;;;;;;;;;;;;;;;4962583;28;20420;-87
2022/07/20 14:10:29;;;;;;;;;;;;;;;;;;4986680;28;19921;-85
2022/07/20 14:12:54;;;;;;;;;;;;;;;;;;4990931;28;19914;-85
2022/07/20 14:15:19;;;;;;;;;;;;;;;;;;4982921;28;19941;-87
2022/07/20 14:17:45;;;;;;;;;;;;;;;;;;4963887;28;19921;-85
2022/07/20 14:20:10;;;;;;;;;;;;;;;;;;4964610;28;19946;-84
2022/07/20 14:22:36;;;;;;;;;;;;;;;;;;4982348;28;20117;-85
2022/07/20 14:25:03;;;;;;;;;;;;;;;;;;4957792;28;19953;-86
2022/07/20 14:27:28;;;;;;;;;;;;;;;;;;4989272;28;20009;-85
2022/07/20 14:29:54;;;;;;;;;;;;;;;;;;4956658;28;20108;-87
2022/07/20 14:32:19;;;;;;;;;;;;;;;;;;4947210;28;20403;-84
2022/07/20 14:34:45;;;;;;;;;;;;;;;;;;4990608;28;19914;-86
2022/07/20 14:37:11;;;;;;;;;;;;;;;;;;4991618;23;21886;-78
2022/07/20 14:39:36;;;;;;;;;;;;;;;;;;4953351;28;19918;-79
2022/07/20 14:42:01;;;;;;;;;;;;;;;;;;4959458;28;19950;-80
2022/07/20 14:44:27;;;;;;;;;;;;;;;;;;4965895;28;20462;-79
2022/07/20 14:46:52;;;;;;;;;;;;;;;;;;4959764;28;19914;-79
2022/07/20 14:49:17;;;;;;;;;;;;;;;;;;4970342;28;19922;-79
2022/07/20 14:51:43;;;;;;;;;;;;;;;;;;4952414;29;19914;-79
2022/07/20 14:54:08;;;;;;;;;;;;;;;;;;4971407;28;19970;-78
2022/07/20 14:56:36;;;;;;;;;;;;;;;;;;4961671;28;19914;-79
2022/07/20 14:59:01;;;;;;;;;;;;;;;;;;4951684;28;19918;-76
2022/07/20 15:01:27;;;;;;;;;;;;;;;;;;4953607;28;19981;-80
2022/07/20 15:03:52;;;;;;;;;;;;;;;;;;4941287;28;20365;-80
2022/07/20 15:06:18;;;;;;;;;;;;;;;;;;4922360;29;20005;-79
2022/07/20 15:08:43;;;;;;;;;;;;;;;;;;4962160;28;19918;-80
2022/07/20 15:11:09;;;;;;;;;;;;;;;;;;4964812;28;19914;-80
2022/07/20 15:13:35;;;;;;;;;;;;;;;;;;4952266;28;19914;-80
2022/07/20 15:16:01;;;;;;;;;;;;;;;;;;4958881;28;19926;-80
2022/07/20 15:18:26;;;;;;;;;;;;;;;;;;4952286;28;19914;-80
2022/07/20 15:20:52;;;;;;;;;;;;;;;;;;4938046;29;20394;-80
2022/07/20 15:23:17;;;;;;;;;;;;;;;;;;4949888;28;19914;-86
2022/07/20 15:25:42;;;;;;;;;;;;;;;;;;4946661;28;19997;-79
2022/07/20 15:28:08;;;;;;;;;;;;;;;;;;4970409;28;20013;-79
2022/07/20 15:30:33;;;;;;;;;;;;;;;;;;4957038;28;19914;-80
2022/07/20 15:32:59;;;;;;;;;;;;;;;;;;4947370;28;19918;-80
2022/07/20 15:35:24;;;;;;;;;;;;;;;;;;4967108;28;20013;-80
2022/07/20 15:37:49;;;;;;;;;;;;;;;;;;4924819;28;19919;-81
2022/07/20 15:40:15;;;;;;;;;;;;;;;;;;4970441;28;19914;-80
2022/07/20 15:42:40;;;;;;;;;;;;;;;;;;4945953;29;20398;-80
2022/07/20 15:45:05;;;;;;;;;;;;;;;;;;4955368;28;19914;-78
2022/07/20 15:47:31;;;;;;;;;;;;;;;;;;4960602;28;20251;-80
2022/07/20 15:49:56;;;;;;;;;;;;;;;;;;4947401;29;20341;-80
2022/07/20 15:52:22;;;;;;;;;;;;;;;;;;4947138;28;19920;-80
2022/07/20 15:54:47;;;;;;;;;;;;;;;;;;4933015;29;19921;-82
2022/07/20 15:57:23;;;;;;;;;;;;;;;;;;4966430;28;19915;-81
2022/07/20 15:59:48;;;;;;;;;;;;;;;;;;4958324;28;19957;-81
2022/07/20 16:02:13;;;;;;;;;;;;;;;;;;4953026;29;19950;-82
2022/07/20 16:04:41;;;;;;;;;;;;;;;;;;4944376;28;20068;-81
2022/07/20 16:07:06;;;;;;;;;;;;;;;;;;4946349;29;19999;-80
2022/07/20 16:09:31;;;;;;;;;;;;;;;;;;4960990;28;20012;-79
2022/07/20 16:11:57;;;;;;;;;;;;;;;;;;4953091;28;19920;-79
2022/07/20 16:14:22;;;;;;;;;;;;;;;;;;4956321;28;19914;-80
2022/07/20 16:16:48;;;;;;;;;;;;;;;;;;4965326;28;19923;-80
2022/07/20 16:19:13;;;;;;;;;;;;;;;;;;4932929;29;20247;-80
2022/07/20 16:21:39;;;;;;;;;;;;;;;;;;4928895;29;20346;-80
2022/07/20 16:24:04;;;;;;;;;;;;;;;;;;4962311;28;19915;-81
2022/07/20 16:26:29;;;;;;;;;;;;;;;;;;4956077;28;19997;-79
2022/07/20 16:28:55;;;;;;;;;;;;;;;;;;4943961;28;19918;-80
2022/07/20 16:31:20;;;;;;;;;;;;;;;;;;4960552;28;19911;-81
2022/07/20 16:33:45;;;;;;;;;;;;;;;;;;4969307;28;19925;-80
2022/07/20 16:36:11;;;;;;;;;;;;;;;;;;4937901;28;19918;-79